createdAt,value
2019-05-05T00:00:11.146Z,1.90
2019-05-05T00:02:48.156Z,3.05
2019-05-05T00:05:35.441Z,3.87
2019-05-05T00:08:04.981Z,2.02
2019-05-05T00:10:35.844Z,3.80
2019-05-05T00:13:09.518Z,1.67
2019-05-05T00:15:56.598Z,3.52
2019-05-05T00:18:27.469Z,2.65
2019-05-05T00:20:56.730Z,2.27
2019-05-05T00:23:25.942Z,3.77
2019-05-05T00:25:55.414Z,3.33
2019-05-05T00:28:24.984Z,2.02
2019-05-05T00:30:55.377Z,3.22
2019-05-05T00:33:25.015Z,2.25
2019-05-05T00:35:54.579Z,1.47
2019-05-05T00:38:24.865Z,2.00
2019-05-05T00:40:54.990Z,2.20
2019-05-05T00:43:25.246Z,2.87
2019-05-05T00:45:56.134Z,4.53
2019-05-05T00:48:26.984Z,4.37
2019-05-05T00:50:56.130Z,2.72
2019-05-05T00:53:25.334Z,6.00
2019-05-05T00:55:54.745Z,2.83
2019-05-05T00:58:24.746Z,2.00
2019-05-05T01:00:55.332Z,3.02
2019-05-05T01:03:25.936Z,2.55
2019-05-05T01:05:56.777Z,1.82
2019-05-05T01:08:30.507Z,3.47
2019-05-05T01:11:00.022Z,1.77
2019-05-05T01:13:29.160Z,4.62
2019-05-05T01:15:58.671Z,2.62
2019-05-05T01:18:27.700Z,2.42
2019-05-05T01:20:57.025Z,1.67
2019-05-05T01:23:26.169Z,2.55
2019-05-05T01:25:55.406Z,2.72
2019-05-05T01:28:25.061Z,2.10
2019-05-05T01:30:55.871Z,3.92
2019-05-05T01:33:26.532Z,3.08
2019-05-05T01:35:55.792Z,3.17
2019-05-05T01:38:26.676Z,2.15
2019-05-05T01:40:57.322Z,3.70
2019-05-05T01:43:26.549Z,5.17
2019-05-05T01:45:55.878Z,2.72
2019-05-05T01:48:25.235Z,4.97
2019-05-05T01:50:54.542Z,4.47
2019-05-05T01:53:24.529Z,2.50
2019-05-05T01:55:54.319Z,2.55
2019-05-05T01:58:24.475Z,3.67
2019-05-05T02:00:54.565Z,2.40
2019-05-05T02:03:24.444Z,3.17
2019-05-05T02:05:54.605Z,3.60
2019-05-05T02:08:24.446Z,3.42
2019-05-05T02:10:54.780Z,2.70
2019-05-05T02:13:25.150Z,4.85
2019-05-05T02:15:55.277Z,2.67
2019-05-05T02:18:25.332Z,3.80
2019-05-05T02:21:00.437Z,2.90
2019-05-05T02:23:29.599Z,3.80
2019-05-05T02:25:58.736Z,5.12
2019-05-05T02:28:29.546Z,2.77
2019-05-05T02:31:00.209Z,3.02
2019-05-05T02:33:29.424Z,3.75
2019-05-05T02:35:58.617Z,4.35
2019-05-05T02:38:27.779Z,3.05
2019-05-05T02:40:57.104Z,2.52
2019-05-05T02:43:26.324Z,3.90
2019-05-05T02:46:19.125Z,5.05
2019-05-05T02:48:48.461Z,5.22
2019-05-05T02:51:17.759Z,8.23
2019-05-05T02:53:48.647Z,3.00
2019-05-05T02:56:19.443Z,3.65
2019-05-05T02:58:48.727Z,4.40
2019-05-05T03:01:35.119Z,6.62
2019-05-05T03:04:04.555Z,6.45
2019-05-05T03:06:34.306Z,6.03
2019-05-05T03:09:04.429Z,7.25
2019-05-05T03:11:34.313Z,5.80
2019-05-05T03:14:04.547Z,6.60
2019-05-05T03:16:37.823Z,6.15
2019-05-05T03:19:07.842Z,6.25
2019-05-05T03:21:37.031Z,6.75
2019-05-05T03:24:06.405Z,8.43
2019-05-05T03:26:35.750Z,9.05
2019-05-05T03:29:06.508Z,6.55
2019-05-05T03:31:35.747Z,6.30
2019-05-05T03:34:06.255Z,6.70
2019-05-05T03:36:35.476Z,7.78
2019-05-05T03:39:06.125Z,9.93
2019-05-05T03:41:43.819Z,8.08
2019-05-05T03:44:26.871Z,8.65
2019-05-05T03:46:56.096Z,6.58
2019-05-05T03:49:25.327Z,7.80
2019-05-05T03:51:54.584Z,8.33
2019-05-05T03:54:23.937Z,7.55
2019-05-05T03:56:54.629Z,5.72
2019-05-05T03:59:24.347Z,6.28
2019-05-05T04:02:01.287Z,8.30
2019-05-05T04:04:34.925Z,5.72
2019-05-05T04:07:04.736Z,5.90
2019-05-05T04:09:34.570Z,6.37
2019-05-05T04:12:04.445Z,6.40
2019-05-05T04:14:34.733Z,6.55
2019-05-05T04:17:24.379Z,16.15
2019-05-05T04:19:57.933Z,10.35
2019-05-05T04:22:27.085Z,7.33
2019-05-05T04:24:56.375Z,7.03
2019-05-05T04:27:25.763Z,7.25
2019-05-05T04:29:54.844Z,7.97
2019-05-05T04:32:24.495Z,7.12
2019-05-05T04:34:54.427Z,6.25
2019-05-05T04:37:24.042Z,6.78
2019-05-05T04:39:53.836Z,6.05
2019-05-05T04:42:24.563Z,7.53
2019-05-05T04:44:54.016Z,6.53
2019-05-05T04:47:27.738Z,6.80
2019-05-05T04:50:14.927Z,8.55
2019-05-05T04:52:44.413Z,4.35
2019-05-05T04:55:13.882Z,4.28
2019-05-05T04:57:43.688Z,6.85
2019-05-05T05:00:13.774Z,5.35
2019-05-05T05:02:56.702Z,8.05
2019-05-05T05:05:27.343Z,7.87
2019-05-05T05:07:58.113Z,7.53
2019-05-05T05:10:27.346Z,7.20
2019-05-05T05:12:56.674Z,13.28
2019-05-05T05:15:25.867Z,5.67
2019-05-05T05:18:04.104Z,7.45
2019-05-05T05:20:33.987Z,7.92
2019-05-05T05:23:03.737Z,7.35
2019-05-05T05:25:34.629Z,5.80
2019-05-05T05:28:04.267Z,7.58
2019-05-05T05:30:34.685Z,5.90
2019-05-05T05:33:04.461Z,7.17
2019-05-05T05:35:33.643Z,6.62
2019-05-05T05:38:04.435Z,7.55
2019-05-05T05:40:37.839Z,6.85
2019-05-05T05:43:08.520Z,8.10
2019-05-05T05:45:39.203Z,7.10
2019-05-05T05:48:09.718Z,4.30
2019-05-05T05:50:46.325Z,5.62
2019-05-05T05:53:15.491Z,5.33
2019-05-05T05:55:44.865Z,8.18
2019-05-05T05:58:14.227Z,9.40
2019-05-05T06:00:44.350Z,6.70
2019-05-05T06:03:14.122Z,9.70
2019-05-05T06:05:43.726Z,6.55
2019-05-05T06:08:14.170Z,8.10
2019-05-05T06:10:44.290Z,7.20
2019-05-05T06:13:15.842Z,6.05
2019-05-05T06:15:45.134Z,7.92
2019-05-05T06:18:14.456Z,7.12
2019-05-05T06:20:44.593Z,7.90
2019-05-05T06:23:16.909Z,7.58
2019-05-05T06:25:46.091Z,9.45
2019-05-05T06:28:15.151Z,12.18
2019-05-05T06:30:44.602Z,12.00
2019-05-05T06:33:17.049Z,9.40
2019-05-05T06:35:46.339Z,8.83
2019-05-05T06:38:15.771Z,13.48
2019-05-05T06:40:46.588Z,10.13
2019-05-05T06:43:34.782Z,8.83
2019-05-05T06:46:05.745Z,18.07
2019-05-05T06:48:34.925Z,12.18
2019-05-05T06:51:04.123Z,11.12
2019-05-05T06:53:34.201Z,7.90
2019-05-05T06:56:04.163Z,11.00
2019-05-05T06:58:34.700Z,8.70
2019-05-05T07:01:04.097Z,9.20
2019-05-05T07:03:33.768Z,12.20
2019-05-05T07:06:04.382Z,8.65
2019-05-05T07:08:34.677Z,9.88
2019-05-05T07:11:04.261Z,12.13
2019-05-05T07:13:33.958Z,7.37
2019-05-05T07:16:04.808Z,10.65
2019-05-05T07:18:34.336Z,14.05
2019-05-05T07:21:03.789Z,11.88
2019-05-05T07:23:34.058Z,10.45
2019-05-05T07:26:04.135Z,9.03
2019-05-05T07:28:34.217Z,9.93
2019-05-05T07:31:04.401Z,9.78
2019-05-05T07:33:34.568Z,12.80
2019-05-05T07:36:22.168Z,11.80
2019-05-05T07:38:51.418Z,8.40
2019-05-05T07:41:20.581Z,14.18
2019-05-05T07:43:49.676Z,12.53
2019-05-05T07:46:18.815Z,8.75
2019-05-05T07:48:47.864Z,13.05
2019-05-05T07:51:17.204Z,14.98
2019-05-05T07:53:46.477Z,10.35
2019-05-05T07:56:15.758Z,14.95
2019-05-05T07:58:45.015Z,13.20
2019-05-05T08:01:14.318Z,17.37
2019-05-05T08:03:44.632Z,11.10
2019-05-05T08:06:14.527Z,15.93
2019-05-05T08:08:44.417Z,12.55
2019-05-05T08:11:14.675Z,13.93
2019-05-05T08:13:44.472Z,14.68
2019-05-05T08:16:15.332Z,14.35
2019-05-05T08:18:45.920Z,19.37
2019-05-05T08:21:15.149Z,11.03
2019-05-05T08:23:58.072Z,17.85
2019-05-05T08:26:40.645Z,15.20
2019-05-05T08:29:27.805Z,18.05
2019-05-05T08:32:01.327Z,16.12
2019-05-05T08:34:30.515Z,13.65
2019-05-05T08:37:00.088Z,12.40
2019-05-05T08:39:29.130Z,12.28
2019-05-05T08:41:58.468Z,12.43
2019-05-05T08:44:27.639Z,12.78
2019-05-05T08:46:56.839Z,14.35
2019-05-05T08:49:25.877Z,13.45
2019-05-05T08:51:55.054Z,14.87
2019-05-05T08:54:24.264Z,15.45
2019-05-05T08:56:54.965Z,7.03
2019-05-05T08:59:24.336Z,14.25
2019-05-05T09:01:54.128Z,11.28
2019-05-05T09:04:24.655Z,13.43
2019-05-05T09:06:54.416Z,13.62
2019-05-05T09:09:24.198Z,8.30
2019-05-05T09:11:54.218Z,13.05
2019-05-05T09:14:24.007Z,10.90
2019-05-05T09:16:53.729Z,12.40
2019-05-05T09:19:24.105Z,11.22
2019-05-05T09:21:54.129Z,12.33
2019-05-05T09:24:28.006Z,11.63
2019-05-05T09:27:03.473Z,8.05
2019-05-05T09:29:36.944Z,11.80
2019-05-05T09:32:06.217Z,13.22
2019-05-05T09:34:35.359Z,8.48
2019-05-05T09:37:05.148Z,17.67
2019-05-05T09:39:34.675Z,12.40
2019-05-05T09:42:04.231Z,9.15
2019-05-05T09:44:34.784Z,15.23
2019-05-05T09:47:04.730Z,14.05
2019-05-05T09:49:34.118Z,11.68
2019-05-05T09:52:04.997Z,13.13
2019-05-05T09:54:34.646Z,11.90
2019-05-05T09:57:04.577Z,16.80
2019-05-05T09:59:34.767Z,11.35
2019-05-05T10:02:04.435Z,13.18
2019-05-05T10:04:35.191Z,13.85
2019-05-05T10:07:04.621Z,14.05
2019-05-05T10:09:34.458Z,11.25
2019-05-05T10:12:04.718Z,13.70
2019-05-05T10:14:34.340Z,20.02
2019-05-05T10:17:04.921Z,13.95
2019-05-05T10:19:34.447Z,14.23
2019-05-05T10:22:04.143Z,14.15
2019-05-05T10:24:34.977Z,16.45
2019-05-05T10:27:04.973Z,12.28
2019-05-05T10:29:34.188Z,17.55
2019-05-05T10:32:04.603Z,12.47
2019-05-05T10:34:34.034Z,11.68
2019-05-05T10:37:04.204Z,9.43
2019-05-05T10:39:35.798Z,9.30
2019-05-05T10:42:04.921Z,10.05
2019-05-05T10:44:34.227Z,11.75
2019-05-05T10:47:04.566Z,12.23
2019-05-05T10:49:34.058Z,8.78
2019-05-05T10:52:03.870Z,9.28
2019-05-05T10:54:43.308Z,9.70
2019-05-05T10:57:04.572Z,8.05
2019-05-05T10:59:34.489Z,10.80
2019-05-05T11:02:04.981Z,9.58
2019-05-05T11:04:34.649Z,9.28
2019-05-05T11:07:04.368Z,10.53
2019-05-05T11:09:34.695Z,11.33
2019-05-05T11:12:04.173Z,10.32
2019-05-05T11:14:33.751Z,12.50
2019-05-05T11:17:04.164Z,11.28
2019-05-05T11:19:33.920Z,7.95
2019-05-05T11:22:03.095Z,11.35
2019-05-05T11:24:34.474Z,7.92
2019-05-05T11:27:04.461Z,8.23
2019-05-05T11:29:35.688Z,13.70
2019-05-05T11:32:07.013Z,8.43
2019-05-05T11:34:37.273Z,9.05
2019-05-05T11:37:08.007Z,12.30
2019-05-05T11:39:37.703Z,7.83
2019-05-05T11:42:07.225Z,7.50
2019-05-05T11:44:38.461Z,12.25
2019-05-05T11:47:09.957Z,10.25
2019-05-05T11:49:40.777Z,9.25
2019-05-05T11:52:13.615Z,10.43
2019-05-05T11:54:45.778Z,9.90
2019-05-05T11:57:21.038Z,9.23
2019-05-05T11:59:54.882Z,9.48
2019-05-05T12:02:28.708Z,9.35
2019-05-05T12:05:01.806Z,10.50
2019-05-05T12:07:50.894Z,11.10
2019-05-05T12:10:28.780Z,8.10
2019-05-05T12:13:04.013Z,8.43
2019-05-05T12:15:34.115Z,7.95
2019-05-05T12:18:03.883Z,9.38
2019-05-05T12:20:39.272Z,10.50
2019-05-05T12:23:11.326Z,10.75
2019-05-05T12:25:48.411Z,9.85
2019-05-05T12:28:27.565Z,9.00
2019-05-05T12:31:04.959Z,5.62
2019-05-05T12:33:35.339Z,6.20
2019-05-05T12:36:08.031Z,6.92
2019-05-05T12:38:39.942Z,6.80
2019-05-05T12:41:10.375Z,8.13
2019-05-05T12:43:41.347Z,5.80
2019-05-05T12:46:29.283Z,6.60
2019-05-05T12:49:00.325Z,8.40
2019-05-05T12:51:30.080Z,6.72
2019-05-05T12:53:59.105Z,5.53
2019-05-05T12:56:28.682Z,7.70
2019-05-05T12:58:59.250Z,6.08
2019-05-05T13:01:33.551Z,5.08
2019-05-05T13:04:03.582Z,5.70
2019-05-05T13:06:34.575Z,6.10
2019-05-05T13:09:07.016Z,9.28
2019-05-05T13:11:39.583Z,5.35
2019-05-05T13:14:09.683Z,6.05
2019-05-05T13:16:52.120Z,4.95
2019-05-05T13:19:29.513Z,6.62
2019-05-05T13:22:03.548Z,5.58
2019-05-05T13:24:44.149Z,5.08
2019-05-05T13:27:19.471Z,8.58
2019-05-05T13:29:48.576Z,6.35
2019-05-05T13:32:18.692Z,4.15
2019-05-05T13:34:47.957Z,4.78
2019-05-05T13:37:17.155Z,5.72
2019-05-05T13:39:46.320Z,6.08
2019-05-05T13:42:15.668Z,9.90
2019-05-05T13:44:50.420Z,5.40
2019-05-05T13:47:19.818Z,7.22
2019-05-05T13:49:50.016Z,5.40
2019-05-05T13:52:19.320Z,5.78
2019-05-05T13:54:48.639Z,5.65
2019-05-05T13:57:17.959Z,7.95
2019-05-05T13:59:47.174Z,7.62
2019-05-05T14:02:16.468Z,7.75
2019-05-05T14:04:45.598Z,5.50
2019-05-05T14:07:15.286Z,6.08
2019-05-05T14:09:44.562Z,7.30
2019-05-05T14:12:14.616Z,7.85
2019-05-05T14:14:44.111Z,5.67
2019-05-05T14:17:14.743Z,6.90
2019-05-05T14:19:45.598Z,5.22
2019-05-05T14:22:15.535Z,7.03
2019-05-05T14:24:46.822Z,6.40
2019-05-05T14:27:16.387Z,6.20
2019-05-05T14:29:52.810Z,6.92
2019-05-05T14:32:31.900Z,4.67
2019-05-05T14:35:04.003Z,9.73
2019-05-05T14:37:37.362Z,7.10
2019-05-05T14:40:09.859Z,7.62
2019-05-05T14:42:43.582Z,7.60
2019-05-05T14:45:15.667Z,3.90
2019-05-05T14:47:46.189Z,4.10
2019-05-05T14:50:15.580Z,6.22
2019-05-05T14:52:45.364Z,9.43
2019-05-05T14:55:14.510Z,6.15
2019-05-05T14:57:46.453Z,5.72
2019-05-05T15:00:19.797Z,7.45
2019-05-05T15:02:52.141Z,6.83
2019-05-05T15:05:38.753Z,3.62
2019-05-05T15:08:24.708Z,7.67
2019-05-05T15:11:08.257Z,5.70
2019-05-05T15:13:38.178Z,4.10
2019-05-05T15:16:09.997Z,7.55
2019-05-05T15:18:38.483Z,4.85
2019-05-05T15:21:07.741Z,7.17
2019-05-05T15:23:37.014Z,5.37
2019-05-05T15:26:08.049Z,5.58
2019-05-05T15:28:37.398Z,7.55
2019-05-05T15:31:06.734Z,7.47
2019-05-05T15:33:35.923Z,4.78
2019-05-05T15:36:05.397Z,6.75
2019-05-05T15:38:34.917Z,6.30
2019-05-05T15:41:04.103Z,7.08
2019-05-05T15:43:33.568Z,5.62
2019-05-05T15:46:04.505Z,5.58
2019-05-05T15:48:33.964Z,5.55
2019-05-05T15:51:04.346Z,5.72
2019-05-05T15:53:33.672Z,4.35
2019-05-05T15:56:04.498Z,4.40
2019-05-05T15:58:34.216Z,4.45
2019-05-05T16:01:03.847Z,4.95
2019-05-05T16:03:33.092Z,6.75
2019-05-05T16:06:03.806Z,9.38
2019-05-05T16:08:33.955Z,14.00
2019-05-05T16:11:03.775Z,7.97
2019-05-05T16:13:35.265Z,5.72
2019-05-05T16:16:08.536Z,7.67
2019-05-05T16:18:39.480Z,6.72
2019-05-05T16:21:10.610Z,4.62
2019-05-05T16:24:00.230Z,13.30
2019-05-05T16:26:29.536Z,6.35
2019-05-05T16:28:59.087Z,8.30
2019-05-05T16:31:28.723Z,9.75
2019-05-05T16:33:57.990Z,4.72
2019-05-05T16:36:28.378Z,5.95
2019-05-05T16:38:57.840Z,6.25
2019-05-05T16:41:27.788Z,6.78
2019-05-05T16:43:57.326Z,6.92
2019-05-05T16:46:26.842Z,4.55
2019-05-05T16:48:56.947Z,5.75
2019-05-05T16:51:28.199Z,8.20
2019-05-05T16:53:59.095Z,5.37
2019-05-05T16:56:28.318Z,8.55
2019-05-05T16:58:57.658Z,6.20
2019-05-05T17:01:26.960Z,5.35
2019-05-05T17:04:08.433Z,6.45
2019-05-05T17:06:27.028Z,7.10
2019-05-05T17:08:56.539Z,8.50
2019-05-05T17:11:25.890Z,8.90
2019-05-05T17:13:57.298Z,6.78
2019-05-05T17:16:35.259Z,7.05
2019-05-05T17:19:13.933Z,5.90
2019-05-05T17:21:48.033Z,5.08
2019-05-05T17:24:17.324Z,5.45
2019-05-05T17:26:46.772Z,6.97
2019-05-05T17:29:16.167Z,10.63
2019-05-05T17:31:45.949Z,8.30
2019-05-05T17:34:14.991Z,8.48
2019-05-05T17:36:45.257Z,6.03
2019-05-05T17:39:14.804Z,6.12
2019-05-05T17:41:45.677Z,8.85
2019-05-05T17:44:16.309Z,4.75
2019-05-05T17:46:47.122Z,6.40
2019-05-05T17:49:30.093Z,5.58
2019-05-05T17:52:03.757Z,6.37
2019-05-05T17:54:34.639Z,6.03
2019-05-05T17:57:04.058Z,9.85
2019-05-05T17:59:33.885Z,5.17
2019-05-05T18:02:04.734Z,8.50
2019-05-05T18:04:34.873Z,9.75
2019-05-05T18:07:05.497Z,6.87
2019-05-05T18:09:51.042Z,5.25
2019-05-05T18:12:37.097Z,5.08
2019-05-05T18:15:13.547Z,5.67
2019-05-05T18:17:43.347Z,7.55
2019-05-05T18:20:17.063Z,5.05
2019-05-05T18:22:48.086Z,7.65
2019-05-05T18:25:18.130Z,4.50
2019-05-05T18:27:47.791Z,7.90
2019-05-05T18:30:17.549Z,7.75
2019-05-05T18:32:46.919Z,7.50
2019-05-05T18:35:19.609Z,8.43
2019-05-05T18:37:50.645Z,5.47
2019-05-05T18:40:20.835Z,4.47
2019-05-05T18:42:50.919Z,4.22
2019-05-05T18:45:21.182Z,8.03
2019-05-05T18:47:50.387Z,7.47
2019-05-05T18:50:24.491Z,9.28
2019-05-05T18:55:27.391Z,7.37
2019-05-05T18:57:58.062Z,7.15
2019-05-05T19:00:44.944Z,5.87
2019-05-05T19:03:20.282Z,4.92
2019-05-05T19:05:48.740Z,6.10
2019-05-05T19:08:22.120Z,7.05
2019-05-05T19:10:54.074Z,4.65
2019-05-05T19:13:24.467Z,6.67
2019-05-05T19:15:56.046Z,4.80
2019-05-05T19:18:33.894Z,11.60
2019-05-05T19:21:10.918Z,6.12
2019-05-05T19:23:44.766Z,6.22
2019-05-05T19:26:15.155Z,10.35
2019-05-05T19:28:50.192Z,8.00
2019-05-05T19:31:24.269Z,5.95
2019-05-05T19:34:00.758Z,5.83
2019-05-05T19:36:35.593Z,5.65
2019-05-05T19:39:09.077Z,4.95
2019-05-05T19:41:40.043Z,5.78
2019-05-05T19:44:11.978Z,7.33
2019-05-05T19:47:00.693Z,6.87
2019-05-05T19:49:30.534Z,5.33
2019-05-05T19:52:05.669Z,6.12
2019-05-05T19:54:36.430Z,8.10
2019-05-05T19:57:09.389Z,3.95
2019-05-05T19:59:44.759Z,4.70
2019-05-05T20:02:16.831Z,4.33
2019-05-05T20:04:46.176Z,8.15
2019-05-05T20:07:16.039Z,7.28
2019-05-05T20:09:46.479Z,6.60
2019-05-05T20:12:18.728Z,8.93
2019-05-05T20:14:49.370Z,5.20
2019-05-05T20:17:26.162Z,5.97
2019-05-05T20:19:55.532Z,8.65
2019-05-05T20:22:25.117Z,6.25
2019-05-05T20:24:54.471Z,11.48
2019-05-05T20:27:23.749Z,5.87
2019-05-05T20:29:53.206Z,8.30
2019-05-05T20:32:24.522Z,7.05
2019-05-05T20:34:55.367Z,8.68
2019-05-05T20:37:26.154Z,7.85
2019-05-05T20:39:56.176Z,7.62
2019-05-05T20:42:25.506Z,8.45
2019-05-05T20:44:54.780Z,8.25
2019-05-05T20:47:24.055Z,5.85
2019-05-05T20:49:53.988Z,10.45
2019-05-05T20:52:23.754Z,5.92
2019-05-05T20:54:53.733Z,4.90
2019-05-05T20:57:23.309Z,6.50
2019-05-05T20:59:52.876Z,10.08
2019-05-05T21:02:21.915Z,6.10
2019-05-05T21:04:51.149Z,7.25
2019-05-05T21:07:23.582Z,6.33
2019-05-05T21:09:51.173Z,8.13
2019-05-05T21:12:20.392Z,6.67
2019-05-05T21:14:49.704Z,5.28
2019-05-05T21:17:18.946Z,4.33
2019-05-05T21:19:48.293Z,5.55
2019-05-05T21:22:28.195Z,6.55
2019-05-05T21:24:58.215Z,3.65
2019-05-05T21:27:27.339Z,6.10
2019-05-05T21:29:56.557Z,9.75
2019-05-05T21:32:25.828Z,8.98
2019-05-05T21:34:55.077Z,4.17
2019-05-05T21:37:24.893Z,6.83
2019-05-05T21:39:55.169Z,5.67
2019-05-05T21:42:24.408Z,4.08
2019-05-05T21:44:54.002Z,4.22
2019-05-05T21:47:23.954Z,5.53
2019-05-05T21:49:54.222Z,4.55
2019-05-05T21:52:25.236Z,6.40
2019-05-05T21:54:55.991Z,3.62
2019-05-05T21:57:38.803Z,6.15
2019-05-05T22:00:10.132Z,6.12
2019-05-05T22:02:39.291Z,8.20
2019-05-05T22:05:08.431Z,4.53
2019-05-05T22:07:37.530Z,5.55
2019-05-05T22:10:06.786Z,3.75
2019-05-05T22:12:36.275Z,3.72
2019-05-05T22:15:07.088Z,6.25
2019-05-05T22:17:36.431Z,4.42
2019-05-05T22:20:07.794Z,4.30
2019-05-05T22:22:38.365Z,4.72
2019-05-05T22:25:07.752Z,5.22
2019-05-05T22:27:36.879Z,5.42
2019-05-05T22:30:09.921Z,7.42
2019-05-05T22:32:37.881Z,4.75
2019-05-05T22:35:07.647Z,6.47
2019-05-05T22:37:36.858Z,5.87
2019-05-05T22:40:06.213Z,6.67
2019-05-05T22:42:35.473Z,7.80
2019-05-05T22:45:06.252Z,5.35
2019-05-05T22:47:35.375Z,6.53
2019-05-05T22:50:05.827Z,7.17
2019-05-05T22:52:35.059Z,3.70
2019-05-05T22:55:05.222Z,7.67
2019-05-05T22:57:34.622Z,4.80
2019-05-05T23:00:05.600Z,4.15
2019-05-05T23:02:54.975Z,8.35
2019-05-05T23:05:34.818Z,3.47
2019-05-05T23:08:04.401Z,4.60
2019-05-05T23:10:33.595Z,3.22
2019-05-05T23:13:03.957Z,5.08
2019-05-05T23:15:34.939Z,4.83
2019-05-05T23:18:17.850Z,4.50
2019-05-05T23:21:06.495Z,4.92
2019-05-05T23:23:55.993Z,9.63
2019-05-05T23:26:35.717Z,4.50
2019-05-05T23:29:02.908Z,5.80
2019-05-05T23:31:33.580Z,2.22
2019-05-05T23:34:03.961Z,4.78
2019-05-05T23:36:33.948Z,10.85
2019-05-05T23:39:03.980Z,5.35
2019-05-05T23:41:34.879Z,5.42
2019-05-05T23:44:04.845Z,5.03
2019-05-05T23:46:34.850Z,4.28
2019-05-05T23:49:04.376Z,5.55
2019-05-05T23:51:34.651Z,4.08
2019-05-05T23:54:04.414Z,3.95
2019-05-05T23:56:35.048Z,4.28
2019-05-05T23:59:04.468Z,5.70
